createdAt,value
2022-12-27T00:02:04.849Z,6.66
2022-12-27T00:04:32.743Z,6.60
2022-12-27T00:07:00.364Z,6.48
2022-12-27T00:09:27.945Z,6.44
2022-12-27T00:12:00.001Z,6.43
2022-12-27T00:14:28.088Z,6.36
2022-12-27T00:16:55.730Z,6.33
2022-12-27T00:19:23.281Z,6.29
2022-12-27T00:21:50.872Z,6.21
2022-12-27T00:24:18.439Z,6.16
2022-12-27T00:26:46.024Z,6.09
2022-12-27T00:29:14.914Z,6.04
2022-12-27T00:31:43.363Z,6.01
2022-12-27T00:34:12.091Z,5.98
2022-12-27T00:36:39.715Z,5.92
2022-12-27T00:39:07.337Z,5.86
2022-12-27T00:41:34.870Z,5.82
2022-12-27T00:44:02.671Z,5.82
2022-12-27T00:46:31.613Z,5.85
2022-12-27T00:48:59.376Z,5.79
2022-12-27T00:51:27.152Z,5.78
2022-12-27T00:53:55.774Z,5.75
2022-12-27T00:56:25.650Z,5.71
2022-12-27T00:58:55.046Z,5.72
2022-12-27T01:01:24.304Z,5.69
2022-12-27T01:03:53.815Z,5.63
2022-12-27T01:06:23.823Z,5.58
2022-12-27T01:08:51.368Z,5.55
2022-12-27T01:11:19.809Z,5.52
2022-12-27T01:13:48.133Z,5.46
2022-12-27T01:16:18.471Z,5.47
2022-12-27T01:18:46.319Z,5.43
2022-12-27T01:21:18.031Z,5.47
2022-12-27T01:23:46.272Z,5.44
2022-12-27T01:26:16.091Z,5.39
2022-12-27T01:28:44.016Z,5.38
2022-12-27T01:31:13.887Z,5.43
2022-12-27T01:33:41.660Z,5.39
2022-12-27T01:36:11.241Z,5.36
2022-12-27T01:38:42.582Z,5.34
2022-12-27T01:41:28.331Z,5.30
2022-12-27T01:43:55.919Z,5.28
2022-12-27T01:46:23.609Z,5.32
2022-12-27T01:48:51.660Z,5.29
2022-12-27T01:51:19.751Z,5.31
2022-12-27T01:53:51.938Z,5.30
2022-12-27T01:56:24.383Z,5.33
2022-12-27T01:58:56.567Z,5.36
2022-12-27T02:01:27.948Z,5.35
2022-12-27T02:04:02.701Z,5.31
2022-12-27T02:06:32.093Z,5.29
2022-12-27T02:09:08.214Z,5.27
2022-12-27T02:11:52.967Z,5.25
2022-12-27T02:14:27.811Z,5.26
2022-12-27T02:16:57.676Z,5.20
2022-12-27T02:19:35.639Z,5.21
2022-12-27T02:22:31.540Z,5.21
2022-12-27T02:25:16.254Z,5.22
2022-12-27T02:27:57.691Z,5.20
2022-12-27T02:30:27.139Z,5.16
2022-12-27T02:32:59.529Z,5.13
2022-12-27T02:35:32.980Z,5.12
2022-12-27T02:38:06.151Z,5.11
2022-12-27T02:40:55.443Z,5.13
2022-12-27T02:43:41.015Z,5.12
2022-12-27T02:46:33.151Z,5.11
2022-12-27T02:49:18.677Z,5.10
2022-12-27T02:52:26.725Z,5.09
2022-12-27T02:55:11.371Z,5.07
2022-12-27T02:57:43.760Z,5.07
2022-12-27T03:00:35.014Z,5.07
2022-12-27T03:03:24.701Z,5.05
2022-12-27T03:06:42.711Z,5.05
2022-12-27T03:09:45.974Z,5.04
2022-12-27T03:12:41.631Z,5.07
2022-12-27T03:15:39.605Z,5.06
2022-12-27T03:18:13.225Z,5.02
2022-12-27T03:25:05.985Z,5.04
2022-12-27T03:27:37.298Z,5.07
2022-12-27T03:30:27.140Z,5.10
2022-12-27T03:33:16.706Z,5.11
2022-12-27T03:36:05.209Z,5.12
2022-12-27T03:38:37.429Z,5.09
2022-12-27T03:41:26.674Z,5.07
2022-12-27T03:43:54.261Z,5.03
2022-12-27T03:46:38.815Z,5.02
2022-12-27T03:49:21.576Z,5.02
2022-12-27T03:51:55.478Z,5.00
2022-12-27T03:54:27.194Z,4.93
2022-12-27T03:56:57.401Z,4.89
2022-12-27T03:59:26.477Z,4.85
2022-12-27T04:01:54.267Z,4.77
2022-12-27T04:04:21.998Z,4.74
2022-12-27T04:06:51.021Z,4.66
2022-12-27T04:09:36.081Z,4.63
2022-12-27T04:12:21.483Z,4.58
2022-12-27T04:15:07.901Z,4.54
2022-12-27T04:17:53.181Z,4.48
2022-12-27T04:20:38.553Z,4.44
2022-12-27T04:23:25.282Z,4.37
2022-12-27T04:26:10.616Z,4.32
2022-12-27T04:28:55.908Z,4.26
2022-12-27T04:31:41.172Z,4.22
2022-12-27T04:34:26.527Z,4.17
2022-12-27T04:36:54.071Z,4.15
2022-12-27T04:39:23.086Z,4.10
2022-12-27T04:42:08.000Z,4.05
2022-12-27T04:44:53.140Z,4.05
2022-12-27T04:47:40.749Z,3.97
2022-12-27T04:50:34.781Z,3.89
2022-12-27T04:53:20.092Z,3.85
2022-12-27T04:55:48.981Z,3.83
2022-12-27T04:58:16.507Z,3.75
2022-12-27T05:01:01.872Z,3.68
2022-12-27T05:03:29.560Z,3.63
2022-12-27T05:05:57.240Z,3.57
2022-12-27T05:08:42.209Z,3.51
2022-12-27T05:11:29.280Z,3.41
2022-12-27T05:14:03.060Z,3.35
2022-12-27T05:16:32.528Z,3.33
2022-12-27T05:19:00.173Z,3.26
2022-12-27T05:21:27.790Z,3.20
2022-12-27T05:24:13.135Z,3.16
2022-12-27T05:26:43.018Z,3.13
2022-12-27T05:29:10.985Z,3.03
2022-12-27T05:31:38.622Z,2.99
2022-12-27T05:34:07.020Z,2.92
2022-12-27T05:36:35.107Z,2.82
2022-12-27T05:39:02.731Z,2.81
2022-12-27T05:41:30.271Z,2.80
2022-12-27T05:44:06.561Z,2.79
2022-12-27T05:46:34.933Z,2.79
2022-12-27T05:49:02.634Z,2.73
2022-12-27T05:51:30.239Z,2.67
2022-12-27T05:53:57.892Z,2.63
2022-12-27T05:56:25.464Z,2.62
2022-12-27T05:58:54.224Z,2.58
2022-12-27T06:01:23.602Z,2.59
2022-12-27T06:03:51.235Z,2.55
2022-12-27T06:06:18.868Z,2.54
2022-12-27T06:08:46.461Z,2.54
2022-12-27T06:11:17.660Z,2.52
2022-12-27T06:13:50.244Z,2.46
2022-12-27T06:16:18.726Z,2.41
2022-12-27T06:18:47.661Z,2.42
2022-12-27T06:21:17.604Z,2.39
2022-12-27T06:23:46.123Z,2.34
2022-12-27T06:26:16.240Z,2.34
2022-12-27T06:28:43.856Z,2.31
2022-12-27T06:31:12.518Z,2.31
2022-12-27T06:33:40.553Z,2.28
2022-12-27T06:36:11.327Z,2.27
2022-12-27T06:38:39.406Z,2.28
2022-12-27T06:41:08.591Z,2.31
2022-12-27T06:43:37.001Z,2.33
2022-12-27T06:46:10.292Z,2.32
2022-12-27T06:48:41.198Z,2.27
2022-12-27T06:51:12.579Z,2.27
2022-12-27T06:53:40.311Z,2.24
2022-12-27T06:56:10.429Z,2.22
2022-12-27T06:58:38.419Z,2.18
2022-12-27T07:01:08.654Z,2.16
2022-12-27T07:03:36.350Z,2.29
2022-12-27T07:06:05.472Z,2.30
2022-12-27T07:08:35.465Z,2.29
2022-12-27T07:11:04.919Z,2.22
2022-12-27T07:13:34.825Z,2.23
2022-12-27T07:16:04.816Z,2.19
2022-12-27T07:18:32.542Z,2.23
2022-12-27T07:21:00.424Z,2.17
2022-12-27T07:23:27.988Z,2.13
2022-12-27T07:26:03.307Z,2.12
2022-12-27T07:28:30.984Z,2.11
2022-12-27T07:30:58.631Z,2.15
2022-12-27T07:33:26.358Z,2.07
2022-12-27T07:35:58.957Z,2.05
2022-12-27T07:38:26.625Z,2.15
2022-12-27T07:40:59.416Z,2.21
2022-12-27T07:43:27.238Z,2.21
2022-12-27T07:45:54.797Z,2.10
2022-12-27T07:48:22.368Z,2.13
2022-12-27T07:50:55.495Z,2.15
2022-12-27T07:53:23.142Z,2.17
2022-12-27T07:55:55.132Z,2.22
2022-12-27T07:58:24.080Z,2.19
2022-12-27T08:00:53.300Z,2.18
2022-12-27T08:03:21.112Z,2.21
2022-12-27T08:05:50.015Z,2.29
2022-12-27T08:08:19.320Z,2.23
2022-12-27T08:10:46.928Z,2.25
2022-12-27T08:13:14.543Z,2.33
2022-12-27T08:15:44.489Z,3.11
2022-12-27T08:18:12.093Z,2.82
2022-12-27T08:20:39.739Z,2.78
2022-12-27T08:23:07.285Z,2.78
2022-12-27T08:25:34.879Z,2.98
2022-12-27T08:28:06.001Z,3.11
2022-12-27T08:30:33.711Z,3.17
2022-12-27T08:33:04.132Z,3.21
2022-12-27T08:35:52.267Z,3.32
2022-12-27T08:38:21.017Z,3.35
2022-12-27T08:40:48.665Z,3.42
2022-12-27T08:43:16.588Z,3.49
2022-12-27T08:45:44.186Z,3.57
2022-12-27T08:48:13.344Z,3.60
2022-12-27T08:50:40.930Z,3.68
2022-12-27T08:53:08.499Z,3.78
2022-12-27T08:55:36.123Z,3.91
2022-12-27T08:58:12.077Z,3.87
2022-12-27T09:00:43.552Z,3.96
2022-12-27T09:03:13.104Z,4.03
2022-12-27T09:05:42.199Z,3.99
2022-12-27T09:08:10.384Z,4.08
2022-12-27T09:10:38.028Z,4.06
2022-12-27T09:13:05.696Z,4.09
2022-12-27T09:15:33.391Z,4.16
2022-12-27T09:18:02.961Z,4.33
2022-12-27T09:20:31.878Z,4.43
2022-12-27T09:23:00.411Z,4.59
2022-12-27T09:25:28.071Z,4.78
2022-12-27T09:27:55.872Z,4.89
2022-12-27T09:30:23.440Z,5.05
2022-12-27T09:32:51.062Z,5.21
2022-12-27T09:35:18.714Z,5.42
2022-12-27T09:37:47.611Z,5.70
2022-12-27T09:40:17.247Z,5.88
2022-12-27T09:43:01.976Z,6.07
2022-12-27T09:45:39.155Z,6.26
2022-12-27T09:48:12.852Z,6.38
2022-12-27T09:50:48.665Z,6.54
2022-12-27T09:53:22.280Z,6.69
2022-12-27T09:55:52.889Z,6.88
2022-12-27T09:58:35.374Z,6.97
2022-12-27T10:01:03.749Z,7.14
2022-12-27T10:03:31.788Z,7.19
2022-12-27T10:06:12.284Z,7.45
2022-12-27T10:08:48.440Z,7.59
2022-12-27T10:11:39.168Z,7.59
2022-12-27T10:14:18.960Z,7.67
2022-12-27T10:16:53.946Z,8.17
2022-12-27T10:19:28.431Z,8.25
2022-12-27T10:22:06.660Z,8.37
2022-12-27T10:24:40.742Z,8.45
2022-12-27T10:27:15.519Z,8.46
2022-12-27T10:29:43.751Z,8.38
2022-12-27T10:32:14.052Z,8.42
2022-12-27T10:34:41.666Z,8.32
2022-12-27T10:37:14.321Z,8.58
2022-12-27T10:39:44.118Z,8.68
2022-12-27T10:42:23.982Z,9.12
2022-12-27T10:44:51.525Z,9.20
2022-12-27T10:47:19.649Z,9.33
2022-12-27T10:50:09.551Z,9.50
2022-12-27T10:52:37.261Z,10.09
2022-12-27T10:55:27.534Z,9.83
2022-12-27T10:57:55.834Z,9.44
2022-12-27T11:00:24.917Z,9.40
2022-12-27T11:02:53.919Z,9.33
2022-12-27T11:05:24.432Z,9.19
2022-12-27T11:07:52.670Z,9.26
2022-12-27T11:10:23.828Z,9.28
2022-12-27T11:12:59.890Z,9.43
2022-12-27T11:15:29.594Z,9.44
2022-12-27T11:17:59.634Z,9.47
2022-12-27T11:20:30.769Z,9.60
2022-12-27T11:23:02.622Z,9.48
2022-12-27T11:25:32.307Z,9.62
2022-12-27T11:28:04.008Z,9.81
2022-12-27T11:30:35.608Z,10.04
2022-12-27T11:33:07.028Z,10.61
2022-12-27T11:35:47.433Z,10.78
2022-12-27T11:38:25.190Z,10.64
2022-12-27T11:41:02.187Z,11.08
2022-12-27T11:43:34.293Z,11.45
2022-12-27T11:46:06.531Z,11.67
2022-12-27T11:48:39.326Z,11.40
2022-12-27T11:51:42.174Z,11.22
2022-12-27T11:54:33.800Z,10.74
2022-12-27T11:57:15.953Z,10.66
2022-12-27T12:00:06.833Z,10.16
2022-12-27T12:02:58.026Z,10.25
2022-12-27T12:05:46.389Z,10.47
2022-12-27T12:08:33.811Z,10.68
2022-12-27T12:11:12.935Z,10.37
2022-12-27T12:13:59.754Z,10.15
2022-12-27T12:16:51.551Z,10.17
2022-12-27T12:19:34.942Z,10.45
2022-12-27T12:22:21.402Z,10.35
2022-12-27T12:25:18.721Z,10.20
2022-12-27T12:28:02.559Z,9.92
2022-12-27T12:31:00.770Z,10.12
2022-12-27T12:33:49.098Z,9.74
2022-12-27T12:36:42.228Z,10.12
2022-12-27T12:39:21.317Z,10.11
2022-12-27T12:42:11.365Z,10.32
2022-12-27T12:44:59.021Z,10.60
2022-12-27T12:47:46.203Z,10.69
2022-12-27T12:50:32.729Z,10.64
2022-12-27T12:53:20.039Z,10.29
2022-12-27T12:55:58.829Z,10.50
2022-12-27T12:58:51.589Z,10.17
2022-12-27T13:01:35.211Z,10.07
2022-12-27T13:04:09.047Z,10.23
2022-12-27T13:07:04.300Z,10.31
2022-12-27T13:09:45.431Z,10.25
2022-12-27T13:12:17.869Z,10.10
2022-12-27T13:15:05.070Z,10.44
2022-12-27T13:17:40.089Z,10.45
2022-12-27T13:20:24.406Z,10.69
2022-12-27T13:23:05.190Z,11.03
2022-12-27T13:25:42.292Z,11.29
2022-12-27T13:28:27.561Z,11.07
2022-12-27T13:31:00.143Z,11.26
2022-12-27T13:33:35.964Z,10.86
2022-12-27T13:36:25.137Z,10.99
2022-12-27T13:39:11.102Z,10.69
2022-12-27T13:41:50.729Z,11.03
2022-12-27T13:44:32.417Z,11.42
2022-12-27T13:47:36.177Z,11.28
2022-12-27T13:50:32.860Z,10.95
2022-12-27T13:53:25.543Z,10.97
2022-12-27T13:55:56.631Z,10.75
2022-12-27T13:59:05.857Z,10.60
2022-12-27T14:01:47.097Z,11.04
2022-12-27T14:04:35.123Z,11.16
2022-12-27T14:07:46.400Z,11.41
2022-12-27T14:10:29.301Z,11.04
2022-12-27T14:13:01.863Z,10.85
2022-12-27T14:15:44.427Z,10.93
2022-12-27T14:18:28.041Z,10.63
2022-12-27T14:21:12.469Z,10.44
2022-12-27T14:23:56.191Z,10.17
2022-12-27T14:26:42.021Z,10.15
2022-12-27T14:29:35.255Z,9.91
2022-12-27T14:32:45.800Z,9.85
2022-12-27T14:35:43.151Z,9.75
2022-12-27T14:38:41.717Z,9.66
2022-12-27T14:41:51.837Z,9.56
2022-12-27T14:44:56.565Z,9.48
2022-12-27T14:47:42.617Z,9.29
2022-12-27T14:50:48.348Z,9.08
2022-12-27T14:54:12.664Z,8.87
2022-12-27T14:56:54.568Z,8.80
2022-12-27T14:59:33.531Z,8.76
2022-12-27T15:02:19.089Z,8.69
2022-12-27T15:05:11.587Z,8.62
2022-12-27T15:08:07.739Z,8.56
2022-12-27T15:10:52.679Z,8.43
2022-12-27T15:13:30.689Z,8.34
2022-12-27T15:16:08.834Z,8.22
2022-12-27T15:18:55.588Z,8.11
2022-12-27T15:21:43.490Z,7.96
2022-12-27T15:24:22.404Z,7.86
2022-12-27T15:26:55.578Z,7.69
2022-12-27T15:29:38.401Z,7.59
2022-12-27T15:32:20.488Z,7.37
2022-12-27T15:35:04.273Z,7.15
2022-12-27T15:37:57.128Z,6.98
2022-12-27T15:40:39.525Z,6.84
2022-12-27T15:43:18.977Z,6.71
2022-12-27T15:46:00.970Z,6.64
2022-12-27T15:48:58.515Z,6.57
2022-12-27T15:51:33.455Z,6.47
2022-12-27T15:54:28.662Z,6.49
2022-12-27T15:57:15.210Z,6.40
2022-12-27T15:59:47.370Z,6.25
2022-12-27T16:02:35.520Z,6.10
2022-12-27T16:05:11.898Z,5.96
2022-12-27T16:07:47.702Z,5.84
2022-12-27T16:10:35.386Z,5.73
2022-12-27T16:13:39.220Z,5.66
2022-12-27T16:16:12.779Z,5.56
2022-12-27T16:19:14.935Z,5.44
2022-12-27T16:21:45.374Z,5.36
2022-12-27T16:24:18.463Z,5.25
2022-12-27T16:26:55.480Z,5.20
2022-12-27T16:29:27.276Z,5.12
2022-12-27T16:32:15.582Z,5.03
2022-12-27T16:34:46.661Z,5.00
2022-12-27T16:37:28.892Z,4.90
2022-12-27T16:40:10.764Z,4.83
2022-12-27T16:43:32.728Z,4.77
2022-12-27T16:46:35.755Z,4.62
2022-12-27T16:49:43.545Z,4.54
2022-12-27T16:52:39.063Z,4.37
2022-12-27T16:55:25.676Z,4.31
2022-12-27T16:57:53.387Z,4.34
2022-12-27T17:00:36.450Z,4.22
2022-12-27T17:03:33.191Z,4.03
2022-12-27T17:09:34.060Z,3.90
2022-12-27T17:12:10.308Z,3.84
2022-12-27T17:14:39.519Z,3.78
2022-12-27T17:17:11.514Z,3.67
2022-12-27T17:19:45.198Z,3.63
2022-12-27T17:22:15.726Z,3.59
2022-12-27T17:24:45.749Z,3.53
2022-12-27T17:27:24.267Z,3.49
2022-12-27T17:30:05.021Z,3.44
2022-12-27T17:32:50.306Z,3.42
2022-12-27T17:35:29.207Z,3.42
2022-12-27T17:38:10.551Z,3.37
2022-12-27T17:40:47.273Z,3.29
2022-12-27T17:43:46.282Z,3.22
2022-12-27T17:46:29.667Z,3.21
2022-12-27T17:48:58.935Z,3.20
2022-12-27T17:51:29.308Z,3.16
2022-12-27T17:54:15.998Z,3.19
2022-12-27T17:57:04.439Z,3.31
2022-12-27T17:59:33.918Z,3.22
2022-12-27T18:02:06.467Z,3.12
2022-12-27T18:04:36.974Z,3.06
2022-12-27T18:07:07.884Z,2.97
2022-12-27T18:09:39.753Z,2.88
2022-12-27T18:12:18.586Z,2.80
2022-12-27T18:14:52.391Z,2.75
2022-12-27T18:17:28.984Z,2.73
2022-12-27T18:19:57.358Z,2.70
2022-12-27T18:22:25.039Z,2.68
2022-12-27T18:24:52.577Z,2.62
2022-12-27T18:27:25.522Z,2.58
2022-12-27T18:29:53.116Z,2.56
2022-12-27T18:32:29.747Z,2.55
2022-12-27T18:35:01.934Z,2.55
2022-12-27T18:37:30.890Z,2.57
2022-12-27T18:40:01.151Z,2.56
2022-12-27T18:42:34.268Z,2.59
2022-12-27T18:45:06.017Z,2.55
2022-12-27T18:47:39.851Z,2.49
2022-12-27T18:50:18.926Z,3.06
2022-12-27T18:52:51.248Z,2.95
2022-12-27T18:55:26.699Z,2.78
2022-12-27T18:58:03.331Z,2.63
2022-12-27T19:00:31.004Z,2.53
2022-12-27T19:03:14.605Z,2.70
2022-12-27T19:05:59.847Z,2.67
2022-12-27T19:08:33.735Z,2.51
2022-12-27T19:11:01.712Z,2.39
2022-12-27T19:13:37.012Z,2.31
2022-12-27T19:16:05.205Z,2.24
2022-12-27T19:18:38.268Z,2.24
2022-12-27T19:21:07.708Z,2.21
2022-12-27T19:23:37.164Z,2.17
2022-12-27T19:26:25.460Z,2.14
2022-12-27T19:29:02.201Z,2.05
2022-12-27T19:31:30.607Z,2.00
2022-12-27T19:34:02.200Z,1.96
2022-12-27T19:36:32.550Z,1.92
2022-12-27T19:39:01.146Z,1.90
2022-12-27T19:41:28.845Z,1.91
2022-12-27T19:43:56.990Z,1.86
2022-12-27T19:46:30.816Z,1.80
2022-12-27T19:51:50.950Z,1.71
2022-12-27T19:54:21.833Z,1.71
2022-12-27T19:56:49.735Z,1.72
2022-12-27T19:59:20.241Z,1.81
2022-12-27T20:01:49.891Z,1.91
2022-12-27T20:04:19.060Z,1.91
2022-12-27T20:06:49.417Z,1.92
2022-12-27T20:09:19.201Z,1.81
2022-12-27T20:11:49.774Z,1.72
2022-12-27T20:14:17.958Z,1.66
2022-12-27T20:16:46.186Z,1.61
2022-12-27T20:19:17.885Z,1.56
2022-12-27T20:21:45.465Z,1.48
2022-12-27T20:24:14.089Z,1.42
2022-12-27T20:26:42.974Z,1.40
2022-12-27T20:29:11.480Z,1.38
2022-12-27T20:31:44.641Z,1.38
2022-12-27T20:34:12.343Z,1.43
2022-12-27T20:36:41.758Z,1.42
2022-12-27T20:39:09.505Z,1.43
2022-12-27T20:41:37.259Z,1.37
2022-12-27T20:44:05.619Z,1.32
2022-12-27T20:46:33.289Z,1.30
2022-12-27T20:49:01.263Z,1.28
2022-12-27T20:51:31.546Z,1.24
2022-12-27T20:54:02.602Z,1.20
2022-12-27T20:56:30.674Z,1.15
2022-12-27T20:58:58.266Z,1.12
2022-12-27T21:01:27.181Z,1.08
2022-12-27T21:03:55.895Z,1.07
2022-12-27T21:06:25.586Z,1.05
2022-12-27T21:08:57.149Z,1.06
2022-12-27T21:11:30.219Z,0.99
2022-12-27T21:13:57.888Z,0.90
2022-12-27T21:16:27.748Z,0.87
2022-12-27T21:18:56.389Z,0.91
2022-12-27T21:21:28.382Z,0.91
2022-12-27T21:23:56.868Z,0.85
2022-12-27T21:26:27.781Z,0.83
2022-12-27T21:28:55.921Z,0.83
2022-12-27T21:31:23.739Z,0.83
2022-12-27T21:33:51.713Z,0.78
2022-12-27T21:36:21.460Z,0.77
2022-12-27T21:38:49.629Z,0.74
2022-12-27T21:41:19.313Z,0.73
2022-12-27T21:43:49.830Z,0.72
2022-12-27T21:46:20.968Z,0.67
2022-12-27T21:48:49.975Z,0.66
2022-12-27T21:51:19.813Z,0.64
2022-12-27T21:53:48.030Z,0.62
2022-12-27T21:56:17.031Z,0.60
2022-12-27T21:58:45.774Z,0.57
2022-12-27T22:01:16.910Z,0.58
2022-12-27T22:03:46.489Z,0.56
2022-12-27T22:06:16.826Z,0.53
2022-12-27T22:08:45.720Z,0.49
2022-12-27T22:11:14.222Z,0.50
2022-12-27T22:13:42.381Z,0.48
2022-12-27T22:16:15.666Z,0.47
2022-12-27T22:18:44.882Z,0.48
2022-12-27T22:21:15.269Z,0.47
2022-12-27T22:23:44.735Z,0.50
2022-12-27T22:26:14.216Z,0.50
2022-12-27T22:28:42.508Z,0.52
2022-12-27T22:31:11.982Z,0.49
2022-12-27T22:33:41.195Z,0.43
2022-12-27T22:36:11.727Z,0.45
2022-12-27T22:38:40.627Z,0.44
2022-12-27T22:41:12.247Z,0.43
2022-12-27T22:43:40.952Z,0.40
2022-12-27T22:46:10.734Z,0.36
2022-12-27T22:48:38.780Z,0.40
2022-12-27T22:51:14.037Z,0.39
2022-12-27T22:53:42.180Z,0.41
2022-12-27T22:56:14.090Z,0.42
2022-12-27T22:58:41.687Z,0.41
2022-12-27T23:01:12.630Z,0.37
2022-12-27T23:03:40.367Z,0.40
2022-12-27T23:06:11.128Z,0.41
2022-12-27T23:08:38.879Z,0.40
2022-12-27T23:11:08.848Z,0.45
2022-12-27T23:13:36.484Z,0.42
2022-12-27T23:16:05.422Z,0.44
2022-12-27T23:18:33.608Z,0.42
2022-12-27T23:21:20.295Z,0.43
2022-12-27T23:23:50.244Z,0.39
2022-12-27T23:26:20.131Z,0.39
2022-12-27T23:28:48.936Z,0.35
2022-12-27T23:31:17.282Z,0.36
2022-12-27T23:33:44.869Z,0.35
2022-12-27T23:36:14.091Z,0.33
2022-12-27T23:38:41.753Z,0.33
2022-12-27T23:41:15.396Z,0.30
2022-12-27T23:43:52.664Z,0.24
2022-12-27T23:46:24.886Z,0.27
2022-12-27T23:48:53.240Z,0.24
2022-12-27T23:51:22.251Z,0.29
2022-12-27T23:53:50.475Z,0.31
2022-12-27T23:56:22.291Z,0.35
2022-12-27T23:58:51.634Z,0.39
